KDKK/DKK METAR and TAF weather

Enter ICAO airport designator
Station Type Date Time Source
KDKK METAR 2021/07/27 21:53 UTC NOAA

KDKK 272153Z AUTO 25008KT 10SM SCT042 BKN050 25/21 A2998 RMK AO2 SLP149 T02500211 $


Station Type Date Time Source
KDKK Decoded METAR 2021/07/27 21:53 UTC NOAA

CHAUTAUQUA COUNTY/DUNKIRK, NY, United States (KDKK) 42-30N 079-17W 202M
Jul 27, 2021 - 05:53 PM EDT / 2021.07.27 2153 UTC
Wind: from the WSW (250 degrees) at 9 MPH (8 KT):0
Visibility: 10 mile(s):0
Sky conditions: mostly cloudy
Temperature: 77.0 F (25.0 C)
Dew Point: 70.0 F (21.1 C)
Relative Humidity: 78%
Pressure (altimeter): 29.98 in. Hg (1015 hPa)
ob: KDKK 272153Z AUTO 25008KT 10SM SCT042 BKN050 25/21 A2998 RMK AO2 SLP149 T02500211
cycle: 22

Station Type Date Time Source
KDKK TAF UTC NOAA

Error!

Example: see airport list